Coden, Alabama
Current Conditions -  °F | °C
As of 4:40 AM on Sunday 26 Oct 2014 (Local Time) from KPQL Reporting Station
Haze Haze  
Wind Chill: 52°   Ceiling: Unl
Heat Index: 52°   Visibility: 6mi
Dew Point: 51°   Wind: 0mph
Humidity: 97%   Direction: NA
Pressure: 30.03"   Gusts: NA
Location:  30.38°N, 88.24°W
Report Text: KPQL 260940Z AUTO 00000KT 6SM BR CLR 11/11 A3003 RMK AO2 T01110106 TSNO
Loading
Personal Weather Stations






























Interactive Weather Map
Tropical Storm Tracking
New forecast layout! Learn more

10-Day Weather Forecast

Advertisements
Track Severe Weather on mobile